Time;durP1;ratioP1;P1;durP2;ratioP2;P2;SDS_P1;SDS_P2;PMS_P1;PMS_P2;Temp;Humidity;BMP_temperature;BMP_pressure;BME280_temperature;BME280_humidity;BME280_pressure;Samples;Min_cycle;Max_cycle;Signal;HPM_P1;HPM_P2
2022/05/01 00:00:15;;;;;;;20.17;13.40;;;7.30;99.90;;;;;;4861196;29;20048;-81
2022/05/01 00:02:40;;;;;;;20.23;13.83;;;7.30;99.90;;;;;;4833222;29;20052;-82
2022/05/01 00:05:07;;;;;;;24.17;13.83;;;7.40;99.90;;;;;;4890390;29;20045;-82
2022/05/01 00:07:33;;;;;;;20.00;12.87;;;7.40;99.90;;;;;;4873963;29;20060;-82
2022/05/01 00:09:59;;;;;;;22.57;14.67;;;7.30;99.90;;;;;;4882521;29;20044;-82
2022/05/01 00:12:25;;;;;;;18.87;13.43;;;7.40;99.90;;;;;;4862348;29;20084;-82
2022/05/01 00:14:51;;;;;;;20.37;13.57;;;7.40;99.90;;;;;;4859711;29;20077;-81
2022/05/01 00:17:17;;;;;;;22.73;14.43;;;7.30;99.90;;;;;;4844001;29;20049;-82
2022/05/01 00:19:42;;;;;;;18.80;13.57;;;7.40;99.90;;;;;;4850337;29;20069;-82
2022/05/01 00:22:08;;;;;;;21.17;13.70;;;7.30;99.90;;;;;;4867722;29;20040;-82
2022/05/01 00:24:34;;;;;;;20.27;14.50;;;7.30;99.90;;;;;;4846718;29;20127;-82
2022/05/01 00:27:00;;;;;;;19.87;13.60;;;7.30;99.90;;;;;;4871524;29;20106;-82
2022/05/01 00:29:26;;;;;;;20.87;14.13;;;7.30;99.90;;;;;;4855099;29;20049;-82
2022/05/01 00:31:52;;;;;;;19.37;12.50;;;7.30;99.90;;;;;;4894927;29;20044;-82
2022/05/01 00:37:02;;;;;;;21.23;13.63;;;7.30;99.90;;;;;;4876550;29;20076;-82
2022/05/01 00:39:28;;;;;;;20.57;13.93;;;7.20;99.90;;;;;;4861473;29;20080;-82
2022/05/01 00:41:54;;;;;;;17.90;13.30;;;7.20;99.90;;;;;;4830926;29;20140;-82
2022/05/01 00:44:21;;;;;;;20.67;13.77;;;7.20;99.90;;;;;;4846811;29;20049;-81
2022/05/01 00:46:52;;;;;;;22.30;13.77;;;7.20;99.90;;;;;;4877857;29;20045;-82
2022/05/01 00:49:28;;;;;;;19.47;13.57;;;7.30;99.90;;;;;;4884529;29;20048;-82
2022/05/01 00:52:00;;;;;;;20.87;14.23;;;7.30;99.90;;;;;;4876493;29;20575;-82
2022/05/01 00:54:27;;;;;;;;;;;7.30;99.90;;;;;;4863049;29;20048;-82
2022/05/01 00:56:54;;;;;;;22.50;14.43;;;7.30;99.90;;;;;;4885219;29;19926;-82
2022/05/01 00:59:21;;;;;;;21.77;14.87;;;7.30;99.90;;;;;;4843097;29;20049;-81
2022/05/01 01:01:49;;;;;;;27.57;16.00;;;7.30;99.90;;;;;;4882749;29;20313;-81
2022/05/01 01:04:15;;;;;;;22.07;15.63;;;7.30;99.90;;;;;;4895688;29;20053;-81
2022/05/01 01:06:42;;;;;;;24.13;15.70;;;7.30;99.90;;;;;;4889343;29;20535;-82
2022/05/01 01:09:08;;;;;;;25.93;15.80;;;7.30;99.90;;;;;;4847395;29;20045;-82
2022/05/01 01:11:35;;;;;;;23.77;16.47;;;7.40;99.90;;;;;;4874350;29;20614;-81
2022/05/01 01:14:03;;;;;;;22.70;14.67;;;7.40;99.90;;;;;;4861449;29;20521;-81
2022/05/01 01:16:29;;;;;;;23.27;15.23;;;7.40;99.90;;;;;;4877091;29;20113;-81
2022/05/01 01:18:55;;;;;;;23.10;15.77;;;7.40;99.90;;;;;;4877104;29;20801;-81
2022/05/01 01:21:21;;;;;;;24.10;15.53;;;7.40;99.90;;;;;;4877226;29;20037;-81
2022/05/01 01:23:47;;;;;;;25.20;15.97;;;7.40;99.90;;;;;;4861775;29;20049;-81
2022/05/01 01:26:14;;;;;;;19.93;14.63;;;7.40;99.90;;;;;;4849298;29;20042;-82
2022/05/01 01:28:41;;;;;;;21.53;15.20;;;7.40;99.90;;;;;;4845280;29;20053;-82
2022/05/01 01:33:57;;;;;;;25.80;15.37;;;7.40;99.90;;;;;;4863979;29;20084;-81
2022/05/01 01:36:26;;;;;;;26.50;16.00;;;7.30;99.90;;;;;;4861249;29;20093;-82
2022/05/01 01:38:52;;;;;;;23.53;15.87;;;7.30;99.90;;;;;;4868533;29;20069;-81
2022/05/01 01:41:22;;;;;;;25.37;15.93;;;7.30;99.90;;;;;;4876325;29;20409;-82
2022/05/01 01:43:49;;;;;;;20.87;15.30;;;7.40;99.90;;;;;;4876782;29;20108;-82
2022/05/01 01:46:15;;;;;;;25.97;15.47;;;7.40;99.90;;;;;;4878862;29;20041;-82
2022/05/01 01:48:41;;;;;;;22.80;16.07;;;7.40;99.90;;;;;;4861384;29;20075;-82
2022/05/01 01:51:06;;;;;;;28.43;15.97;;;7.40;99.90;;;;;;4870105;29;20072;-81
2022/05/01 01:53:35;;;;;;;25.67;15.90;;;7.40;99.90;;;;;;4868872;29;20037;-82
2022/05/01 01:56:02;;;;;;;24.90;16.33;;;7.40;99.90;;;;;;4866132;29;20048;-82
2022/05/01 01:58:28;;;;;;;27.07;16.57;;;7.40;99.90;;;;;;4895634;29;20067;-82
2022/05/01 02:00:56;;;;;;;20.37;15.07;;;7.40;99.90;;;;;;4895403;29;20060;-82
2022/05/01 02:03:22;;;;;;;24.30;16.10;;;7.50;99.90;;;;;;4884232;29;20049;-82
2022/05/01 02:05:48;;;;;;;20.50;15.53;;;7.50;99.90;;;;;;4880503;29;20045;-80
2022/05/01 02:08:16;;;;;;;24.37;16.70;;;7.50;99.90;;;;;;4886933;29;20045;-80
2022/05/01 02:10:44;;;;;;;28.13;17.60;;;7.50;99.90;;;;;;4881009;29;20041;-82
2022/05/01 02:13:10;;;;;;;24.77;16.10;;;7.50;99.90;;;;;;4884890;29;20048;-82
2022/05/01 02:15:37;;;;;;;25.67;18.07;;;7.50;99.90;;;;;;4898652;29;20057;-81
2022/05/01 02:18:04;;;;;;;24.20;16.57;;;7.50;99.90;;;;;;4883147;29;20099;-82
2022/05/01 02:21:34;;;;;;;25.63;17.37;;;7.40;99.90;;;;;;4898482;29;20058;-82
2022/05/01 02:23:18;;;;;;;25.67;17.23;;;7.50;99.90;;;;;;4880692;29;20541;-82
2022/05/01 02:25:44;;;;;;;27.77;17.50;;;7.50;99.90;;;;;;4880075;29;20048;-82
2022/05/01 02:28:10;;;;;;;27.83;16.47;;;7.40;99.90;;;;;;4864543;29;20500;-82
2022/05/01 02:30:37;;;;;;;26.10;16.63;;;7.40;99.90;;;;;;4864180;29;20045;-82
2022/05/01 02:33:06;;;;;;;26.13;17.53;;;7.40;99.90;;;;;;4863863;29;20073;-82
2022/05/01 02:35:33;;;;;;;26.80;17.70;;;7.40;99.90;;;;;;4875968;29;20564;-82
2022/05/01 02:37:59;;;;;;;27.07;18.33;;;7.40;99.90;;;;;;4899504;29;20055;-82
2022/05/01 02:40:26;;;;;;;25.07;16.97;;;7.30;99.90;;;;;;4882679;29;20049;-82
2022/05/01 02:42:52;;;;;;;28.07;19.17;;;7.40;99.90;;;;;;4899407;29;20052;-82
2022/05/01 02:45:17;;;;;;;27.63;17.83;;;7.30;99.90;;;;;;4882377;29;20104;-82
2022/05/01 02:47:43;;;;;;;26.53;17.30;;;7.30;99.90;;;;;;4863321;29;20476;-82
2022/05/01 02:50:10;;;;;;;27.90;19.17;;;7.30;99.90;;;;;;4898554;29;20053;-82
2022/05/01 02:52:36;;;;;;;30.20;18.73;;;7.30;99.90;;;;;;4898354;29;20049;-82
2022/05/01 02:55:02;;;;;;;30.40;18.90;;;7.20;99.90;;;;;;4852981;29;20413;-82
2022/05/01 02:57:28;;;;;;;31.53;19.73;;;7.20;99.90;;;;;;4863421;29;20052;-82
2022/05/01 02:59:53;;;;;;;30.67;18.83;;;7.10;99.90;;;;;;4882747;29;20633;-82
2022/05/01 03:02:19;;;;;;;31.67;19.57;;;7.10;99.90;;;;;;4897646;29;20088;-82
2022/05/01 03:04:45;;;;;;;33.63;18.77;;;7.20;99.90;;;;;;4882349;29;20068;-82
2022/05/01 03:07:12;;;;;;;29.10;18.87;;;7.20;99.90;;;;;;4888323;29;20539;-82
2022/05/01 03:09:38;;;;;;;29.63;18.37;;;7.10;99.90;;;;;;4870594;29;20052;-82
2022/05/01 03:12:05;;;;;;;29.53;19.47;;;7.10;99.90;;;;;;4863308;29;20690;-82
2022/05/01 03:14:31;;;;;;;31.73;19.53;;;7.10;99.90;;;;;;4879282;29;20043;-82
2022/05/01 03:16:57;;;;;;;29.30;18.47;;;7.10;99.90;;;;;;4881657;29;20052;-82
2022/05/01 03:22:11;;;;;;;28.23;19.17;;;7.00;99.90;;;;;;4861181;29;20045;-82
2022/05/01 03:24:38;;;;;;;31.70;17.93;;;7.00;99.90;;;;;;4905716;29;20048;-82
2022/05/01 03:27:06;;;;;;;29.87;19.20;;;7.10;99.90;;;;;;4882340;29;20056;-82
2022/05/01 03:29:32;;;;;;;31.60;20.23;;;7.00;99.90;;;;;;4872033;29;20052;-82
2022/05/01 03:31:59;;;;;;;29.47;19.23;;;7.00;99.90;;;;;;4865115;29;20127;-82
2022/05/01 03:34:26;;;;;;;29.80;19.37;;;7.00;99.90;;;;;;4896750;29;20048;-82
2022/05/01 03:36:55;;;;;;;33.17;20.67;;;7.00;99.90;;;;;;4896958;29;20075;-82
2022/05/01 03:39:21;;;;;;;31.10;19.73;;;7.00;99.90;;;;;;4895610;29;20535;-82
2022/05/01 03:41:47;;;;;;;28.83;18.60;;;6.80;99.90;;;;;;4878563;29;20056;-82
2022/05/01 03:44:13;;;;;;;28.90;19.50;;;6.80;99.90;;;;;;4864232;29;20628;-82
2022/05/01 03:46:39;;;;;;;28.00;19.23;;;6.70;99.90;;;;;;4879613;29;20131;-82
2022/05/01 03:49:11;;;;;;;30.03;18.63;;;6.60;99.90;;;;;;4887558;29;20045;-82
2022/05/01 03:51:37;;;;;;;26.97;18.30;;;6.60;99.90;;;;;;4854604;29;20034;-82
2022/05/01 03:54:03;;;;;;;27.30;19.07;;;6.50;99.90;;;;;;4871830;29;20112;-82
2022/05/01 03:56:30;;;;;;;26.77;17.13;;;6.50;99.90;;;;;;4876502;29;20400;-82
2022/05/01 03:58:57;;;;;;;26.23;17.63;;;6.40;99.90;;;;;;4881754;29;20045;-83
2022/05/01 04:01:23;;;;;;;28.03;18.80;;;6.40;99.90;;;;;;4881493;29;20404;-83
2022/05/01 04:03:49;;;;;;;26.47;18.23;;;6.30;99.90;;;;;;4870911;29;20105;-83
2022/05/01 04:06:15;;;;;;;31.47;18.53;;;6.30;99.90;;;;;;4869844;29;20409;-82
2022/05/01 04:08:42;;;;;;;30.87;19.30;;;6.20;99.90;;;;;;4896226;29;20053;-83
2022/05/01 04:11:08;;;;;;;27.90;19.03;;;6.10;99.90;;;;;;4859433;29;20052;-82
2022/05/01 04:13:35;;;;;;;32.20;18.47;;;6.20;99.90;;;;;;4880812;29;20045;-82
2022/05/01 04:16:02;;;;;;;31.47;19.30;;;6.10;99.90;;;;;;4874804;29;20049;-82
2022/05/01 04:18:28;;;;;;;30.73;19.27;;;6.00;99.90;;;;;;4888077;29;20457;-82
2022/05/01 04:20:53;;;;;;;30.87;19.43;;;6.00;99.90;;;;;;4861736;29;20045;-82
2022/05/01 04:23:20;;;;;;;28.47;19.20;;;6.00;99.90;;;;;;4880641;29;20041;-82
2022/05/01 04:25:46;;;;;;;30.13;18.93;;;6.10;99.90;;;;;;4877157;29;20073;-82
2022/05/01 04:28:12;;;;;;;30.40;18.47;;;6.10;99.90;;;;;;4854766;29;20053;-82
2022/05/01 04:30:39;;;;;;;28.20;18.00;;;6.10;99.90;;;;;;4875964;29;20036;-82
2022/05/01 04:33:13;;;;;;;26.60;18.10;;;6.20;99.90;;;;;;4880703;29;20037;-82
2022/05/01 04:35:43;;;;;;;28.13;18.87;;;6.20;99.90;;;;;;4882634;29;20545;-82
2022/05/01 04:38:14;;;;;;;29.43;18.50;;;6.20;99.90;;;;;;4877225;29;20595;-82
2022/05/01 04:40:48;;;;;;;32.85;18.98;;;6.20;99.90;;;;;;4877362;29;20048;-82
2022/05/01 04:43:17;;;;;;;29.20;17.90;;;6.20;99.90;;;;;;4879570;29;20049;-80
2022/05/01 04:45:44;;;;;;;27.97;17.27;;;6.20;99.90;;;;;;4881778;29;20041;-79
2022/05/01 04:48:11;;;;;;;32.47;19.73;;;6.30;99.90;;;;;;4894176;29;20123;-82
2022/05/01 04:50:38;;;;;;;29.67;18.13;;;6.30;99.90;;;;;;4851816;29;20079;-81
2022/05/01 04:53:09;;;;;;;29.07;18.47;;;6.40;99.90;;;;;;4879814;29;20100;-82
2022/05/01 04:55:37;;;;;;;28.63;17.60;;;6.40;99.90;;;;;;4881403;29;20051;-82
2022/05/01 04:58:03;;;;;;;25.20;16.50;;;6.50;99.90;;;;;;4880377;29;20488;-82
2022/05/01 05:00:30;;;;;;;23.73;15.17;;;6.50;99.90;;;;;;4895688;29;20045;-82
2022/05/01 05:02:59;;;;;;;25.53;16.70;;;6.50;99.90;;;;;;4879618;29;20049;-82
2022/05/01 05:05:27;;;;;;;26.03;17.37;;;6.50;99.90;;;;;;4883864;29;20472;-82
2022/05/01 05:07:53;;;;;;;27.37;17.50;;;6.50;99.90;;;;;;4860870;29;20041;-82
2022/05/01 05:10:19;;;;;;;29.80;18.33;;;6.50;99.90;;;;;;4860883;29;20096;-82
2022/05/01 05:12:48;;;;;;;25.60;16.73;;;6.50;99.90;;;;;;4845213;29;20124;-82
2022/05/01 05:15:16;;;;;;;26.20;17.23;;;6.50;99.90;;;;;;4861311;29;20048;-82
2022/05/01 05:17:43;;;;;;;28.43;17.10;;;6.40;99.90;;;;;;4884301;29;20052;-82
2022/05/01 05:20:11;;;;;;;24.87;16.97;;;6.30;99.90;;;;;;4872246;29;20048;-82
2022/05/01 05:22:37;;;;;;;26.23;16.03;;;6.40;99.90;;;;;;4880658;29;20049;-82
2022/05/01 05:25:03;;;;;;;30.97;17.73;;;6.40;99.90;;;;;;4895256;29;20370;-81
2022/05/01 05:27:29;;;;;;;27.37;17.47;;;6.50;99.90;;;;;;4848338;29;20210;-82
2022/05/01 05:29:56;;;;;;;27.47;17.13;;;6.50;99.90;;;;;;4855934;29;20045;-82
2022/05/01 05:32:23;;;;;;;26.83;17.27;;;6.60;99.90;;;;;;4877493;29;20461;-82
2022/05/01 05:34:49;;;;;;;26.10;16.90;;;6.70;99.90;;;;;;4847875;29;20068;-82
2022/05/01 05:37:16;;;;;;;24.97;16.20;;;6.70;99.90;;;;;;4846242;29;20068;-82
2022/05/01 05:39:43;;;;;;;24.90;16.77;;;6.80;99.90;;;;;;4877647;29;20078;-81
2022/05/01 05:42:09;;;;;;;28.47;17.37;;;6.80;99.90;;;;;;4864553;29;20045;-82
2022/05/01 05:44:35;;;;;;;27.30;17.03;;;6.80;99.90;;;;;;4867923;29;20045;-82
2022/05/01 05:47:01;;;;;;;28.83;17.73;;;6.90;99.90;;;;;;4883391;29;20108;-81
2022/05/01 05:49:27;;;;;;;26.87;17.50;;;7.00;99.90;;;;;;4883140;29;20049;-82
2022/05/01 05:51:52;;;;;;;23.90;15.27;;;7.00;99.90;;;;;;4896274;29;20067;-82
2022/05/01 05:54:18;;;;;;;22.73;14.70;;;7.10;99.90;;;;;;4849450;29;20119;-82
2022/05/01 05:56:44;;;;;;;24.73;17.07;;;7.20;99.90;;;;;;4891343;29;20167;-82
2022/05/01 05:59:10;;;;;;;26.67;15.93;;;7.40;99.90;;;;;;4880270;29;20045;-82
2022/05/01 06:01:36;;;;;;;22.23;15.30;;;7.50;99.90;;;;;;4886647;29;20056;-80
2022/05/01 06:04:02;;;;;;;24.67;16.07;;;7.60;99.90;;;;;;4875957;29;20436;-82
2022/05/01 06:06:28;;;;;;;22.10;15.53;;;7.80;99.90;;;;;;4882232;29;20049;-81
2022/05/01 06:08:53;;;;;;;23.43;16.67;;;7.90;99.90;;;;;;4864094;29;20053;-81
2022/05/01 06:11:19;;;;;;;22.83;16.10;;;8.10;99.90;;;;;;4876347;29;20501;-81
2022/05/01 06:13:45;;;;;;;24.30;16.00;;;8.20;99.90;;;;;;4874733;29;20179;-80
2022/05/01 06:16:10;;;;;;;24.63;15.57;;;8.40;99.90;;;;;;4862009;29;20044;-80
2022/05/01 06:18:36;;;;;;;22.53;15.97;;;8.50;99.90;;;;;;4864032;29;20492;-81
2022/05/01 06:21:02;;;;;;;21.63;15.30;;;8.60;99.90;;;;;;4876593;29;20172;-81
2022/05/01 06:23:28;;;;;;;21.00;15.40;;;8.70;99.90;;;;;;4893959;29;20105;-81
2022/05/01 06:25:54;;;;;;;19.57;13.87;;;8.80;99.90;;;;;;4866844;29;20059;-81
2022/05/01 06:28:20;;;;;;;18.50;13.40;;;9.00;99.90;;;;;;4853365;29;20057;-80
2022/05/01 06:30:49;;;;;;;19.10;12.53;;;9.10;99.90;;;;;;4876744;29;20045;-81
2022/05/01 06:33:17;;;;;;;18.53;12.83;;;9.30;99.90;;;;;;4879454;29;20144;-81
2022/05/01 06:35:43;;;;;;;16.20;11.10;;;9.40;99.90;;;;;;4886129;29;20033;-81
2022/05/01 06:38:09;;;;;;;17.97;11.27;;;9.50;99.90;;;;;;4874147;29;20131;-81
2022/05/01 06:40:37;;;;;;;13.67;8.93;;;9.60;99.90;;;;;;4898537;29;20552;-81
2022/05/01 06:43:03;;;;;;;13.67;8.70;;;9.60;99.90;;;;;;4867642;29;20154;-81
2022/05/01 06:45:29;;;;;;;13.63;9.03;;;9.70;99.90;;;;;;4891237;29;20572;-81
2022/05/01 06:47:55;;;;;;;8.70;6.30;;;9.70;99.90;;;;;;4861880;29;20128;-82
2022/05/01 06:50:20;;;;;;;10.50;8.37;;;9.70;99.90;;;;;;4845682;29;20046;-81
2022/05/01 06:52:46;;;;;;;13.17;9.13;;;9.80;99.90;;;;;;4873950;29;20096;-81
2022/05/01 06:55:13;;;;;;;13.00;9.70;;;9.90;99.90;;;;;;4866368;29;20041;-82
2022/05/01 06:57:39;;;;;;;17.40;10.40;;;10.00;99.90;;;;;;4857202;29;20124;-82
2022/05/01 07:00:06;;;;;;;14.57;9.47;;;10.10;99.90;;;;;;4870802;29;20128;-81
2022/05/01 07:02:32;;;;;;;14.03;9.07;;;10.30;99.90;;;;;;4851682;29;20097;-81
2022/05/01 07:04:58;;;;;;;13.37;9.00;;;10.30;99.90;;;;;;4869637;29;20489;-81
2022/05/01 07:07:23;;;;;;;13.40;9.43;;;10.40;99.90;;;;;;4863887;29;20049;-81
2022/05/01 07:09:50;;;;;;;18.20;9.80;;;10.60;99.90;;;;;;4868262;29;20076;-81
2022/05/01 07:12:16;;;;;;;11.37;8.47;;;10.70;99.90;;;;;;4891841;29;20049;-82
2022/05/01 07:14:43;;;;;;;12.70;8.63;;;10.80;99.90;;;;;;4851840;29;20624;-81
2022/05/01 07:17:09;;;;;;;8.23;6.53;;;10.80;99.90;;;;;;4877006;29;20040;-81
2022/05/01 07:19:35;;;;;;;9.97;7.70;;;10.90;99.90;;;;;;4876584;29;20515;-82
2022/05/01 07:22:01;;;;;;;9.30;6.40;;;10.80;99.90;;;;;;4884779;29;20433;-82
2022/05/01 07:24:27;;;;;;;9.93;7.13;;;10.70;99.90;;;;;;4863851;29;20040;-81
2022/05/01 07:26:53;;;;;;;10.77;6.00;;;10.70;99.90;;;;;;4886382;29;20386;-81
2022/05/01 07:29:18;;;;;;;7.77;6.00;;;10.70;99.90;;;;;;4871890;29;20037;-80
2022/05/01 07:31:44;;;;;;;10.67;6.60;;;10.70;99.90;;;;;;4881794;29;20044;-80
2022/05/01 07:34:10;;;;;;;10.87;8.13;;;10.80;99.90;;;;;;4864079;29;20045;-81
2022/05/01 07:36:37;;;;;;;10.97;7.77;;;10.80;99.90;;;;;;4895386;29;20045;-82
2022/05/01 07:39:03;;;;;;;10.83;7.77;;;10.70;99.90;;;;;;4879703;29;20141;-81
2022/05/01 07:41:29;;;;;;;10.43;6.80;;;10.80;99.90;;;;;;4879548;29;20493;-82
2022/05/01 07:43:55;;;;;;;10.70;7.13;;;11.00;99.90;;;;;;4878714;29;20052;-83
2022/05/01 07:46:21;;;;;;;11.53;6.93;;;11.20;99.90;;;;;;4878463;29;20045;-82
2022/05/01 07:48:48;;;;;;;11.80;8.00;;;11.30;99.90;;;;;;4846407;29;20096;-82
2022/05/01 07:51:15;;;;;;;11.50;7.40;;;11.50;99.90;;;;;;4888109;29;20389;-81
2022/05/01 07:53:41;;;;;;;10.73;7.43;;;11.60;99.90;;;;;;4883629;29;20037;-82
2022/05/01 07:56:07;;;;;;;9.63;6.63;;;11.70;99.90;;;;;;4884208;29;20051;-82
2022/05/01 07:58:33;;;;;;;12.00;7.30;;;11.70;99.90;;;;;;4879831;29;20052;-82
2022/05/01 08:01:01;;;;;;;9.27;6.67;;;11.80;99.90;;;;;;4878228;29;20049;-82
2022/05/01 08:06:12;;;;;;;11.83;5.47;;;11.70;99.90;;;;;;4878734;29;20088;-81
2022/05/01 08:08:39;;;;;;;10.50;5.73;;;11.50;99.90;;;;;;4877856;29;20045;-82
2022/05/01 08:11:05;;;;;;;7.60;5.87;;;11.40;99.90;;;;;;4885837;29;20112;-81
2022/05/01 08:13:32;;;;;;;7.00;5.40;;;11.40;99.90;;;;;;4854751;29;20078;-82
2022/05/01 08:15:58;;;;;;;8.90;5.30;;;11.20;99.90;;;;;;4864208;29;20041;-82
2022/05/01 08:21:08;;;;;;;8.70;5.30;;;11.00;99.90;;;;;;4877037;29;20131;-82
2022/05/01 08:23:39;;;;;;;10.63;5.80;;;11.00;99.90;;;;;;4892436;29;20127;-82
2022/05/01 08:26:07;;;;;;;6.30;5.25;;;11.10;99.90;;;;;;4863214;29;20431;-81
2022/05/01 08:28:34;;;;;;;7.20;5.13;;;11.00;99.90;;;;;;4865400;29;20412;-82
2022/05/01 08:31:00;;;;;;;8.93;6.37;;;11.20;99.90;;;;;;4862756;29;20128;-82
2022/05/01 08:33:27;;;;;;;9.00;6.17;;;11.40;99.90;;;;;;4851117;29;20053;-82
2022/05/01 08:35:53;;;;;;;9.50;5.93;;;11.60;99.90;;;;;;4884129;29;20512;-82
2022/05/01 08:38:20;;;;;;;12.03;6.43;;;11.90;99.90;;;;;;4878289;29;20095;-82
2022/05/01 08:40:48;;;;;;;10.23;6.50;;;12.40;99.90;;;;;;4859200;29;20041;-82
2022/05/01 08:43:21;;;;;;;10.97;7.40;;;12.50;99.90;;;;;;4878902;29;20060;-82
2022/05/01 08:45:53;;;;;;;9.40;6.87;;;12.60;99.90;;;;;;4863572;29;20048;-82
2022/05/01 08:48:36;;;;;;;9.30;6.93;;;12.30;99.90;;;;;;4859631;29;20050;-82
2022/05/01 08:51:03;;;;;;;10.73;6.43;;;12.10;99.90;;;;;;4865598;29;20053;-82
2022/05/01 08:53:29;;;;;;;9.73;6.00;;;12.00;99.90;;;;;;4859963;29;20052;-82
2022/05/01 08:55:56;;;;;;;8.30;6.50;;;11.90;99.90;;;;;;4873056;29;20045;-82
2022/05/01 08:58:26;;;;;;;10.93;6.27;;;11.80;99.90;;;;;;4876781;29;20052;-81
2022/05/01 09:00:53;;;;;;;8.33;6.47;;;11.60;99.90;;;;;;4880607;29;21439;-81
2022/05/01 09:03:19;;;;;;;8.50;5.97;;;11.70;99.90;;;;;;4858187;29;20431;-82
2022/05/01 09:05:45;;;;;;;8.70;6.37;;;11.70;99.90;;;;;;4861727;29;20072;-81
2022/05/01 09:08:11;;;;;;;8.67;6.20;;;11.90;99.90;;;;;;4885585;29;20061;-82
2022/05/01 09:10:40;;;;;;;9.60;6.13;;;12.00;99.90;;;;;;4877724;29;20374;-82
2022/05/01 09:13:07;;;;;;;11.83;6.13;;;12.00;99.90;;;;;;4890157;29;20044;-84
2022/05/01 09:15:40;;;;;;;7.40;5.80;;;12.00;99.90;;;;;;4884511;29;20760;-84
2022/05/01 09:18:08;;;;;;;10.00;5.90;;;12.00;99.90;;;;;;4884296;29;20057;-81
2022/05/01 09:20:36;;;;;;;9.43;6.70;;;12.00;99.90;;;;;;4918222;29;20049;-82
2022/05/01 09:23:02;;;;;;;10.97;6.57;;;12.00;99.90;;;;;;4869518;29;20501;-82
2022/05/01 09:25:29;;;;;;;8.37;6.00;;;12.20;99.90;;;;;;4868923;29;20109;-82
2022/05/01 09:28:02;;;;;;;9.07;5.97;;;12.30;99.90;;;;;;4902661;29;20127;-82
2022/05/01 09:30:42;;;;;;;9.87;6.00;;;12.60;99.90;;;;;;4883624;29;20108;-81
2022/05/01 09:33:18;;;;;;;9.27;5.40;;;12.90;99.90;;;;;;4880925;29;20116;-81
2022/05/01 09:35:44;;;;;;;6.97;5.33;;;13.30;99.90;;;;;;4872654;29;20036;-82
2022/05/01 09:38:26;;;;;;;11.57;5.60;;;13.60;99.90;;;;;;4886731;29;20063;-82
2022/05/01 09:40:55;;;;;;;8.65;5.35;;;13.90;99.90;;;;;;4909988;29;20076;-83
2022/05/01 09:43:53;;;;;;;9.63;5.77;;;14.00;99.90;;;;;;4876058;29;20045;-80
2022/05/01 09:46:24;;;;;;;5.70;5.10;;;14.10;99.90;;;;;;4879628;29;20055;-81
2022/05/01 09:48:59;;;;;;;9.60;5.50;;;13.90;99.90;;;;;;4882693;29;20136;-81
2022/05/01 09:51:26;;;;;;;9.10;5.50;;;13.80;99.90;;;;;;4895574;29;20044;-81
2022/05/01 09:53:51;;;;;;;10.20;5.87;;;13.70;99.90;;;;;;4891171;29;20110;-81
2022/05/01 09:56:18;;;;;;;7.43;5.77;;;13.80;99.90;;;;;;4900388;29;20041;-81
2022/05/01 09:58:44;;;;;;;7.80;5.60;;;13.90;99.90;;;;;;4849869;29;20379;-80
2022/05/01 10:01:15;;;;;;;7.10;5.10;;;14.00;99.90;;;;;;4848736;29;20051;-80
2022/05/01 10:03:46;;;;;;;6.97;4.57;;;14.00;99.90;;;;;;4874037;29;20047;-80
2022/05/01 10:06:16;;;;;;;7.30;4.77;;;14.00;99.90;;;;;;4884660;29;20063;-81
2022/05/01 10:08:43;;;;;;;6.57;4.93;;;14.10;99.90;;;;;;4876407;29;20049;-79
2022/05/01 10:11:14;;;;;;;5.37;4.43;;;14.10;99.90;;;;;;4880042;29;20041;-82
2022/05/01 10:13:40;;;;;;;7.93;4.80;;;14.30;99.90;;;;;;4900967;29;20048;-81
2022/05/01 10:16:09;;;;;;;6.67;4.80;;;14.40;99.90;;;;;;4889255;29;20083;-81
2022/05/01 10:18:36;;;;;;;10.27;4.90;;;14.40;99.90;;;;;;4874553;29;20140;-80
2022/05/01 10:21:03;;;;;;;7.03;4.82;;;14.30;99.90;;;;;;4857750;29;20670;-81
2022/05/01 10:23:29;;;;;;;6.40;4.37;;;14.30;99.90;;;;;;4901250;29;20071;-81
2022/05/01 10:26:13;;;;;;;4.90;3.65;;;14.40;99.90;;;;;;4893521;29;20041;-81
2022/05/01 10:28:59;;;;;;;6.30;4.20;;;14.40;99.50;;;;;;4891760;29;20045;-81
2022/05/01 10:34:51;;;;;;;6.10;4.10;;;14.90;96.80;;;;;;4878696;29;20048;-80
2022/05/01 10:37:47;;;;;;;7.82;4.38;;;15.00;93.00;;;;;;4887074;29;20120;-80
2022/05/01 10:40:13;;;;;;;7.47;5.00;;;15.20;92.50;;;;;;4897632;29;20052;-81
2022/05/01 10:42:48;;;;;;;6.95;4.57;;;15.40;99.30;;;;;;4881585;29;20048;-80
2022/05/01 10:45:23;;;;;;;4.82;4.32;;;15.50;91.90;;;;;;4876058;29;20083;-80
2022/05/01 10:47:54;;;;;;;6.63;4.43;;;15.50;84.40;;;;;;4863593;29;20104;-81
2022/05/01 10:50:28;;;;;;;5.80;4.30;;;15.30;92.20;;;;;;4879214;29;20076;-80
2022/05/01 10:53:13;;;;;;;5.18;4.18;;;15.20;91.40;;;;;;4879574;29;20049;-81
2022/05/01 10:56:14;;;;;;;4.63;3.95;;;15.00;83.50;;;;;;4889817;29;20409;-81
2022/05/01 10:58:40;;;;;;;6.25;4.32;;;14.90;92.80;;;;;;4860051;29;20045;-80
2022/05/01 11:01:06;;;;;;;4.80;3.83;;;14.70;93.30;;;;;;4897230;29;20108;-80
2022/05/01 11:03:36;;;;;;;5.47;4.25;;;14.50;91.50;;;;;;4881266;29;20052;-80
2022/05/01 11:06:02;;;;;;;6.88;4.38;;;14.30;92.40;;;;;;4868484;29;20057;-81
2022/05/01 11:08:31;;;;;;;5.50;4.10;;;14.40;93.30;;;;;;4881269;29;20113;-80
2022/05/01 11:10:59;;;;;;;6.10;4.45;;;14.40;92.70;;;;;;4890926;29;20048;-81
2022/05/01 11:13:31;;;;;;;7.65;4.38;;;14.30;91.00;;;;;;4882165;29;20105;-81
2022/05/01 11:15:57;;;;;;;7.25;4.90;;;14.30;90.00;;;;;;4878131;29;20076;-80
2022/05/01 11:18:41;;;;;;;7.25;4.60;;;14.40;94.00;;;;;;4895499;29;20091;-80
2022/05/01 11:21:19;;;;;;;5.32;4.40;;;14.40;94.20;;;;;;4880088;29;20057;-82
2022/05/01 11:23:46;;;;;;;7.25;4.40;;;14.40;97.30;;;;;;4895905;29;20088;-80
2022/05/01 11:26:14;;;;;;;5.75;4.50;;;14.40;95.30;;;;;;4878522;29;20084;-82
2022/05/01 11:28:55;;;;;;;6.95;5.40;;;14.50;92.20;;;;;;4894025;29;20108;-81
2022/05/01 11:31:35;;;;;;;7.72;4.88;;;14.50;75.80;;;;;;4868953;29;20048;-82
2022/05/01 11:34:16;;;;;;;6.43;4.75;;;14.70;97.30;;;;;;4875734;29;20850;-83
2022/05/01 11:37:06;;;;;;;7.93;4.60;;;15.00;90.40;;;;;;4885785;29;20041;-82
2022/05/01 11:39:49;;;;;;;5.85;4.80;;;15.30;74.70;;;;;;4834380;29;20053;-81
2022/05/01 11:42:25;;;;;;;6.20;4.70;;;15.30;74.80;;;;;;4843255;29;20088;-83
2022/05/01 11:44:52;;;;;;;6.47;4.70;;;15.20;88.50;;;;;;4841522;29;20110;-83
2022/05/01 11:47:19;;;;;;;5.25;4.63;;;15.20;84.90;;;;;;4825648;29;20097;-82
2022/05/01 11:49:45;;;;;;;7.75;4.47;;;15.10;83.10;;;;;;4851825;29;20057;-82
2022/05/01 11:52:16;;;;;;;5.90;4.43;;;14.90;83.80;;;;;;4839011;29;20077;-82
2022/05/01 11:54:57;;;;;;;6.45;4.68;;;14.80;85.90;;;;;;4832909;29;20033;-81
2022/05/01 12:03:00;;;;;;;5.18;4.63;;;15.00;77.50;;;;;;4831464;29;20056;-81
2022/05/01 12:05:30;;;;;;;5.72;4.68;;;15.10;75.30;;;;;;4823633;29;20190;-82
2022/05/01 12:07:57;;;;;;;7.22;5.00;;;15.10;77.20;;;;;;4818842;29;20046;-81
2022/05/01 12:10:24;;;;;;;6.78;4.57;;;15.10;73.60;;;;;;4823984;29;20042;-81
2022/05/01 12:12:49;;;;;;;7.20;4.85;;;15.10;74.90;;;;;;4849958;29;20453;-82
2022/05/01 12:15:16;;;;;;;7.95;4.40;;;15.00;79.60;;;;;;4831685;29;20126;-82
2022/05/01 12:17:42;;;;;;;6.10;4.15;;;15.10;79.20;;;;;;4826666;29;20521;-82
2022/05/01 12:20:08;;;;;;;5.68;4.00;;;15.10;81.00;;;;;;4828950;29;20057;-82
2022/05/01 12:22:37;;;;;;;5.00;4.50;;;15.10;78.50;;;;;;4854607;29;20050;-81
2022/05/01 12:25:14;;;;;;;6.05;4.32;;;15.10;76.40;;;;;;4854910;29;20099;-82
2022/05/01 12:27:41;;;;;;;6.68;4.80;;;15.10;69.30;;;;;;4840560;29;20046;-82
2022/05/01 12:30:08;;;;;;;6.43;4.35;;;15.00;76.90;;;;;;4837289;29;20144;-82
2022/05/01 12:32:35;;;;;;;5.72;4.40;;;15.00;76.50;;;;;;4844501;29;20045;-82
2022/05/01 12:35:03;;;;;;;8.90;4.60;;;15.00;71.10;;;;;;4849169;29;20743;-81
2022/05/01 12:37:34;;;;;;;5.78;3.97;;;15.00;70.00;;;;;;4857741;29;20072;-82
2022/05/01 12:40:03;;;;;;;7.45;4.70;;;15.00;70.70;;;;;;4871296;29;20446;-82
2022/05/01 12:45:21;;;;;;;6.93;4.10;;;15.00;69.90;;;;;;4864136;29;20140;-81
2022/05/01 12:47:51;;;;;;;5.70;4.32;;;15.00;69.80;;;;;;4877101;29;20470;-82
2022/05/01 12:50:20;;;;;;;14.88;4.38;;;15.00;70.20;;;;;;4876103;29;20872;-81
2022/05/01 12:52:48;;;;;;;8.02;4.63;;;15.00;68.80;;;;;;4891756;29;20052;-82
2022/05/01 12:55:17;;;;;;;6.88;4.50;;;15.00;71.30;;;;;;4895524;29;20390;-82
2022/05/01 12:57:51;;;;;;;7.07;4.55;;;15.00;69.50;;;;;;4888587;29;20132;-81
2022/05/01 13:00:37;;;;;;;4.22;3.83;;;15.00;67.60;;;;;;4894400;29;20056;-82
2022/05/01 13:03:28;;;;;;;5.32;3.90;;;15.00;67.60;;;;;;4887896;29;20045;-81
2022/05/01 13:06:07;;;;;;;7.22;3.72;;;14.90;67.70;;;;;;4880330;29;20053;-83
2022/05/01 13:08:47;;;;;;;5.22;3.97;;;14.90;65.60;;;;;;4869567;29;20052;-80
2022/05/01 13:11:30;;;;;;;5.07;4.20;;;14.80;67.20;;;;;;4894003;29;20033;-80